Time;durP1;ratioP1;P1;durP2;ratioP2;P2;SDS_P1;SDS_P2;PMS_P1;PMS_P2;Temp;Humidity;BMP_temperature;BMP_pressure;BME280_temperature;BME280_humidity;BME280_pressure;Samples;Min_cycle;Max_cycle;Signal;HPM_P1;HPM_P2
2023/08/31 00:02:01;;;;;;;3.30;2.20;;;;;;;;;;5073391;28;20409;-59
2023/08/31 00:04:27;;;;;;;5.13;2.08;;;;;;;;;;5073033;28;20390;-59
2023/08/31 00:06:54;;;;;;;3.40;2.03;;;;;;;;;;5073319;28;20064;-60
2023/08/31 00:09:21;;;;;;;3.47;2.20;;;;;;;;;;5073147;28;20498;-60
2023/08/31 00:11:48;;;;;;;5.28;2.13;;;;;;;;;;5073305;28;20048;-60
2023/08/31 00:14:16;;;;;;;3.45;2.10;;;;;;;;;;5070108;28;20052;-60
2023/08/31 00:16:43;;;;;;;4.38;1.85;;;;;;;;;;5073273;28;20056;-60
2023/08/31 00:19:09;;;;;;;4.68;2.20;;;;;;;;;;5073272;28;20055;-60
2023/08/31 00:21:36;;;;;;;3.90;2.20;;;;;;;;;;5073018;28;20059;-60
2023/08/31 00:24:03;;;;;;;3.30;2.13;;;;;;;;;;5073060;28;20056;-60
2023/08/31 00:26:30;;;;;;;4.15;2.58;;;;;;;;;;5072558;28;20048;-59
2023/08/31 00:28:58;;;;;;;3.47;1.95;;;;;;;;;;5071302;28;20391;-59
2023/08/31 00:31:27;;;;;;;6.15;1.98;;;;;;;;;;5072902;28;20370;-60
2023/08/31 00:33:54;;;;;;;3.65;1.83;;;;;;;;;;5072449;28;20052;-60
2023/08/31 00:36:21;;;;;;;2.45;1.70;;;;;;;;;;5073037;28;20053;-60
2023/08/31 00:38:47;;;;;;;3.15;2.15;;;;;;;;;;5072914;28;20055;-60
2023/08/31 00:41:14;;;;;;;4.78;2.33;;;;;;;;;;5072567;28;20052;-60
2023/08/31 00:43:41;;;;;;;3.85;1.73;;;;;;;;;;5071039;28;20079;-59
2023/08/31 00:46:08;;;;;;;6.78;1.88;;;;;;;;;;5072343;28;20427;-59
2023/08/31 00:48:37;;;;;;;3.42;1.67;;;;;;;;;;5072583;28;20405;-60
2023/08/31 00:51:04;;;;;;;5.00;2.05;;;;;;;;;;5072541;28;20469;-60
2023/08/31 00:53:31;;;;;;;3.22;2.03;;;;;;;;;;5072663;28;20512;-60
2023/08/31 00:55:58;;;;;;;3.58;1.52;;;;;;;;;;5072594;28;20055;-60
2023/08/31 00:58:25;;;;;;;3.60;1.77;;;;;;;;;;5071126;28;20044;-59
2023/08/31 01:00:58;;;;;;;2.90;1.45;;;;;;;;;;5072073;28;20048;-59
2023/08/31 01:03:32;;;;;;;2.97;1.85;;;;;;;;;;5072693;28;20057;-60
2023/08/31 01:06:03;;;;;;;3.13;1.88;;;;;;;;;;5072258;28;20055;-60
2023/08/31 01:08:34;;;;;;;2.67;1.38;;;;;;;;;;5072231;28;20056;-59
2023/08/31 01:11:08;;;;;;;3.28;1.48;;;;;;;;;;5072400;28;20423;-60
2023/08/31 01:13:38;;;;;;;4.35;2.00;;;;;;;;;;5070014;28;20413;-60
2023/08/31 01:16:06;;;;;;;3.03;1.67;;;;;;;;;;5072010;28;20059;-60
2023/08/31 01:18:35;;;;;;;3.40;2.00;;;;;;;;;;5072321;28;20056;-60
2023/08/31 01:21:07;;;;;;;4.18;1.90;;;;;;;;;;5072015;28;20048;-61
2023/08/31 01:23:44;;;;;;;2.72;1.48;;;;;;;;;;5071950;28;20520;-59
2023/08/31 01:26:10;;;;;;;3.35;1.67;;;;;;;;;;5075575;28;20056;-60
2023/08/31 01:28:37;;;;;;;3.75;2.20;;;;;;;;;;5074498;28;20095;-59
2023/08/31 01:31:05;;;;;;;1.92;1.25;;;;;;;;;;5075797;28;20072;-60
2023/08/31 01:33:32;;;;;;;5.13;2.05;;;;;;;;;;5076009;28;20052;-59
2023/08/31 01:36:00;;;;;;;3.58;1.42;;;;;;;;;;5075583;28;20052;-59
2023/08/31 01:38:29;;;;;;;4.20;1.55;;;;;;;;;;5075685;28;20052;-60
2023/08/31 01:41:02;;;;;;;3.22;1.67;;;;;;;;;;5075062;28;20401;-60
2023/08/31 01:43:30;;;;;;;5.70;1.88;;;;;;;;;;5074525;28;20484;-60
2023/08/31 01:45:58;;;;;;;3.10;2.05;;;;;;;;;;5074914;28;20055;-60
2023/08/31 01:48:25;;;;;;;2.78;1.80;;;;;;;;;;5076059;28;20060;-59
2023/08/31 01:50:51;;;;;;;3.90;1.77;;;;;;;;;;5075478;28;20056;-60
2023/08/31 01:53:18;;;;;;;3.25;1.52;;;;;;;;;;5074920;28;20101;-59
2023/08/31 01:55:45;;;;;;;7.70;2.38;;;;;;;;;;5073864;28;20060;-60
2023/08/31 01:58:13;;;;;;;2.60;1.60;;;;;;;;;;5074683;28;20532;-59
2023/08/31 02:00:40;;;;;;;3.60;1.73;;;;;;;;;;5074136;28;20052;-59
2023/08/31 02:03:07;;;;;;;3.22;1.52;;;;;;;;;;5075534;28;20497;-60
2023/08/31 02:05:34;;;;;;;2.55;1.80;;;;;;;;;;5075395;28;20048;-60
2023/08/31 02:08:01;;;;;;;3.17;1.90;;;;;;;;;;5075173;28;20059;-59
2023/08/31 02:10:29;;;;;;;3.60;1.98;;;;;;;;;;5075000;28;20421;-59
2023/08/31 02:12:56;;;;;;;6.38;2.05;;;;;;;;;;5075155;28;20060;-60
2023/08/31 02:15:24;;;;;;;2.90;1.90;;;;;;;;;;5073720;28;20071;-59
2023/08/31 02:17:51;;;;;;;4.05;2.45;;;;;;;;;;5075269;28;20048;-58
2023/08/31 02:20:20;;;;;;;4.90;2.63;;;;;;;;;;5074776;28;20059;-58
2023/08/31 02:22:47;;;;;;;3.60;2.50;;;;;;;;;;5074708;28;20044;-59
2023/08/31 02:25:13;;;;;;;4.60;2.28;;;;;;;;;;5075413;28;20463;-60
2023/08/31 02:27:40;;;;;;;3.85;2.20;;;;;;;;;;5075420;28;20056;-60
2023/08/31 02:30:07;;;;;;;5.70;2.35;;;;;;;;;;5073775;28;20060;-59
2023/08/31 02:32:35;;;;;;;4.35;2.50;;;;;;;;;;5075051;28;20501;-60
2023/08/31 02:35:03;;;;;;;6.35;2.25;;;;;;;;;;5074586;28;20060;-60
2023/08/31 02:37:29;;;;;;;4.80;2.70;;;;;;;;;;5074207;28;20486;-59
2023/08/31 02:39:56;;;;;;;3.60;2.08;;;;;;;;;;5074939;28;20052;-59
2023/08/31 02:42:23;;;;;;;3.70;2.30;;;;;;;;;;5074871;28;20048;-59
2023/08/31 02:44:52;;;;;;;2.75;2.15;;;;;;;;;;5073025;28;20055;-59
2023/08/31 02:47:19;;;;;;;3.50;2.17;;;;;;;;;;5075006;28;20057;-59
2023/08/31 02:49:47;;;;;;;4.85;1.98;;;;;;;;;;5074789;28;20405;-59
2023/08/31 02:52:14;;;;;;;4.75;2.10;;;;;;;;;;5074647;28;20083;-60
2023/08/31 02:54:41;;;;;;;3.03;2.10;;;;;;;;;;5074621;28;20053;-60
2023/08/31 02:57:08;;;;;;;3.78;2.05;;;;;;;;;;5074267;28;20053;-60
2023/08/31 02:59:35;;;;;;;2.53;1.60;;;;;;;;;;5073214;28;20433;-59
2023/08/31 03:02:02;;;;;;;3.58;2.30;;;;;;;;;;5074465;28;20540;-59
2023/08/31 03:04:32;;;;;;;5.22;2.67;;;;;;;;;;5074691;28;20056;-59
2023/08/31 03:07:00;;;;;;;4.38;2.42;;;;;;;;;;5074588;28;20049;-59
2023/08/31 03:09:27;;;;;;;6.18;2.88;;;;;;;;;;5074243;28;20052;-59
2023/08/31 03:11:54;;;;;;;3.47;2.25;;;;;;;;;;5074451;28;20052;-59
2023/08/31 03:14:20;;;;;;;4.07;2.38;;;;;;;;;;5071967;28;20073;-59
2023/08/31 03:16:48;;;;;;;7.05;3.15;;;;;;;;;;5074336;28;20473;-60
2023/08/31 03:19:15;;;;;;;3.05;2.28;;;;;;;;;;5073783;28;20061;-59
2023/08/31 03:21:42;;;;;;;4.82;2.53;;;;;;;;;;5073850;28;20049;-59
2023/08/31 03:24:10;;;;;;;3.58;2.33;;;;;;;;;;5073676;28;20049;-60
2023/08/31 03:26:37;;;;;;;7.97;2.90;;;;;;;;;;5073968;28;20052;-60
2023/08/31 03:29:04;;;;;;;4.55;2.20;;;;;;;;;;5072372;28;20056;-59
2023/08/31 03:31:31;;;;;;;4.30;2.45;;;;;;;;;;5073577;28;20049;-59
2023/08/31 03:33:58;;;;;;;6.97;2.50;;;;;;;;;;5073284;28;20048;-59
2023/08/31 03:36:25;;;;;;;3.25;1.90;;;;;;;;;;5073447;28;20082;-59
2023/08/31 03:38:52;;;;;;;3.92;2.25;;;;;;;;;;5073366;28;20052;-59
2023/08/31 03:41:20;;;;;;;5.53;2.30;;;;;;;;;;5073417;28;20063;-60
2023/08/31 03:43:47;;;;;;;5.95;2.45;;;;;;;;;;5072033;28;20048;-60
2023/08/31 03:46:13;;;;;;;4.30;2.38;;;;;;;;;;5073571;28;20489;-59
2023/08/31 03:48:40;;;;;;;3.30;2.35;;;;;;;;;;5073343;28;20063;-59
2023/08/31 03:51:07;;;;;;;5.07;2.63;;;;;;;;;;5073247;28;20052;-60
2023/08/31 03:53:34;;;;;;;4.57;2.35;;;;;;;;;;5073430;28;20045;-59
2023/08/31 03:56:00;;;;;;;5.53;2.20;;;;;;;;;;5073304;28;20049;-61
2023/08/31 03:58:28;;;;;;;4.90;2.88;;;;;;;;;;5071764;28;20053;-59
2023/08/31 04:00:55;;;;;;;6.10;3.90;;;;;;;;;;5073364;28;20048;-60
2023/08/31 04:03:23;;;;;;;5.60;2.90;;;;;;;;;;5072730;28;20044;-58
2023/08/31 04:05:54;;;;;;;4.45;2.33;;;;;;;;;;5072790;28;20053;-59
2023/08/31 04:08:21;;;;;;;4.20;2.60;;;;;;;;;;5072687;28;20059;-59
2023/08/31 04:10:48;;;;;;;4.10;3.35;;;;;;;;;;5072715;28;20063;-59
2023/08/31 04:13:14;;;;;;;3.70;2.67;;;;;;;;;;5070838;28;20040;-60
2023/08/31 04:15:42;;;;;;;6.10;3.55;;;;;;;;;;5072593;28;20056;-59
2023/08/31 04:18:09;;;;;;;5.15;3.20;;;;;;;;;;5072804;28;20053;-60
2023/08/31 04:20:36;;;;;;;5.85;3.63;;;;;;;;;;5072664;28;20052;-59
2023/08/31 04:23:03;;;;;;;4.60;3.30;;;;;;;;;;5072381;28;20059;-59
2023/08/31 04:25:31;;;;;;;5.25;3.47;;;;;;;;;;5072455;28;20071;-60
2023/08/31 04:27:58;;;;;;;5.75;3.00;;;;;;;;;;5070448;28;20078;-59
2023/08/31 04:30:26;;;;;;;6.22;3.25;;;;;;;;;;5072320;28;20060;-59
2023/08/31 04:32:54;;;;;;;6.05;4.05;;;;;;;;;;5072152;28;20056;-59
2023/08/31 04:35:21;;;;;;;3.33;2.47;;;;;;;;;;5071918;28;20057;-61
2023/08/31 04:37:48;;;;;;;4.20;2.55;;;;;;;;;;5072225;28;20052;-61
2023/08/31 04:40:15;;;;;;;6.40;3.95;;;;;;;;;;5069951;28;20396;-59
2023/08/31 04:42:41;;;;;;;6.63;3.83;;;;;;;;;;5067656;28;20052;-59
2023/08/31 04:45:08;;;;;;;6.72;3.67;;;;;;;;;;5072886;28;20052;-59
2023/08/31 04:47:36;;;;;;;5.70;3.42;;;;;;;;;;5072626;28;20400;-59
2023/08/31 04:50:06;;;;;;;5.18;3.42;;;;;;;;;;5072525;28;20055;-59
2023/08/31 04:52:33;;;;;;;7.65;3.22;;;;;;;;;;5072700;28;20057;-59
2023/08/31 04:55:01;;;;;;;5.82;3.45;;;;;;;;;;5072127;28;20079;-60
2023/08/31 04:57:28;;;;;;;5.30;3.42;;;;;;;;;;5070802;28;20051;-59
2023/08/31 04:59:55;;;;;;;4.90;2.90;;;;;;;;;;5055044;28;20068;-60
2023/08/31 05:02:21;;;;;;;6.13;3.33;;;;;;;;;;5052144;28;20462;-59
2023/08/31 05:04:48;;;;;;;6.00;4.00;;;;;;;;;;5056851;28;20055;-60
2023/08/31 05:07:17;;;;;;;4.93;3.15;;;;;;;;;;5068383;28;20052;-58
2023/08/31 05:09:43;;;;;;;5.97;3.88;;;;;;;;;;5064961;28;20461;-60
2023/08/31 05:12:10;;;;;;;4.68;2.72;;;;;;;;;;5069157;28;20056;-59
2023/08/31 05:14:39;;;;;;;6.22;4.25;;;;;;;;;;5069716;28;20056;-60
2023/08/31 05:17:06;;;;;;;5.60;3.60;;;;;;;;;;5072098;28;20481;-59
2023/08/31 05:19:33;;;;;;;5.18;3.30;;;;;;;;;;5070783;28;20080;-59
2023/08/31 05:21:59;;;;;;;6.07;3.75;;;;;;;;;;5066498;28;20485;-59
2023/08/31 05:24:28;;;;;;;6.60;3.50;;;;;;;;;;5068802;28;20049;-60
2023/08/31 05:26:54;;;;;;;6.15;3.58;;;;;;;;;;5065387;28;20812;-59
2023/08/31 05:29:21;;;;;;;6.20;3.35;;;;;;;;;;5068975;28;20049;-58
2023/08/31 05:31:48;;;;;;;5.93;3.60;;;;;;;;;;5069705;28;20049;-47
2023/08/31 05:34:17;;;;;;;5.72;3.50;;;;;;;;;;5069001;28;20053;-49
2023/08/31 05:36:44;;;;;;;6.43;3.53;;;;;;;;;;5070990;28;20059;-45
2023/08/31 05:39:10;;;;;;;6.97;4.00;;;;;;;;;;5070023;28;20486;-47
2023/08/31 05:41:40;;;;;;;6.35;3.22;;;;;;;;;;5069821;28;20071;-48
2023/08/31 05:44:07;;;;;;;4.72;3.30;;;;;;;;;;5070337;28;20040;-48
2023/08/31 05:46:34;;;;;;;6.75;3.30;;;;;;;;;;5071998;28;20053;-47
2023/08/31 05:49:01;;;;;;;7.53;4.28;;;;;;;;;;5068973;28;20115;-44
2023/08/31 05:51:28;;;;;;;6.82;3.90;;;;;;;;;;5069328;28;20052;-47
2023/08/31 05:53:54;;;;;;;5.97;3.45;;;;;;;;;;5068595;28;20509;-48
2023/08/31 05:56:21;;;;;;;7.75;4.00;;;;;;;;;;5070563;28;20048;-49
2023/08/31 05:58:50;;;;;;;5.65;4.00;;;;;;;;;;5071319;28;20397;-49
2023/08/31 06:01:17;;;;;;;9.77;4.60;;;;;;;;;;5071702;28;20401;-47
2023/08/31 06:03:43;;;;;;;6.40;3.60;;;;;;;;;;5059489;28;20404;-48
2023/08/31 06:06:10;;;;;;;5.47;3.72;;;;;;;;;;5065368;28;20458;-50
2023/08/31 06:08:37;;;;;;;5.28;3.67;;;;;;;;;;5071763;28;20059;-46
2023/08/31 06:11:03;;;;;;;6.88;4.20;;;;;;;;;;5059394;28;20052;-45
2023/08/31 06:13:30;;;;;;;8.05;3.90;;;;;;;;;;5074880;28;20049;-48
2023/08/31 06:15:59;;;;;;;8.82;3.80;;;;;;;;;;5074486;28;20053;-47
2023/08/31 06:18:26;;;;;;;6.65;4.25;;;;;;;;;;5074459;28;20067;-48
2023/08/31 06:20:53;;;;;;;9.30;4.07;;;;;;;;;;5075011;28;20158;-46
2023/08/31 06:23:19;;;;;;;5.15;3.30;;;;;;;;;;5065375;28;20154;-47
2023/08/31 06:25:46;;;;;;;6.03;3.33;;;;;;;;;;5072261;28;20045;-47
2023/08/31 06:28:13;;;;;;;6.18;3.38;;;;;;;;;;5071944;28;20064;-46
2023/08/31 06:30:46;;;;;;;6.28;4.25;;;;;;;;;;5070717;28;20064;-60
2023/08/31 06:33:14;;;;;;;7.07;4.05;;;;;;;;;;5068450;28;20396;-60
2023/08/31 06:35:41;;;;;;;6.22;3.55;;;;;;;;;;5071701;28;20049;-60
2023/08/31 06:38:08;;;;;;;8.95;4.10;;;;;;;;;;5074294;28;20060;-60
2023/08/31 06:40:34;;;;;;;7.78;3.75;;;;;;;;;;5074444;28;20076;-59
2023/08/31 06:43:02;;;;;;;6.63;3.83;;;;;;;;;;5074040;28;20375;-60
2023/08/31 06:45:29;;;;;;;4.93;3.22;;;;;;;;;;5073856;28;20063;-60
2023/08/31 06:47:55;;;;;;;4.38;3.15;;;;;;;;;;5074380;28;20057;-59
2023/08/31 06:50:23;;;;;;;6.10;3.42;;;;;;;;;;5074127;28;20056;-59
2023/08/31 06:52:50;;;;;;;5.47;3.47;;;;;;;;;;5074443;28;20048;-60
2023/08/31 06:55:17;;;;;;;8.05;4.10;;;;;;;;;;5074612;28;20067;-59
2023/08/31 06:57:44;;;;;;;4.82;3.15;;;;;;;;;;5074491;28;20052;-59
2023/08/31 07:00:12;;;;;;;6.00;3.38;;;;;;;;;;5074658;28;20056;-59
2023/08/31 07:02:40;;;;;;;4.07;2.63;;;;;;;;;;5074212;28;20059;-59
2023/08/31 07:05:07;;;;;;;8.38;3.22;;;;;;;;;;5074386;28;20060;-59
2023/08/31 07:07:35;;;;;;;4.97;2.60;;;;;;;;;;5074636;28;20107;-58
2023/08/31 07:10:02;;;;;;;3.88;2.05;;;;;;;;;;5073915;28;20052;-59
2023/08/31 07:12:28;;;;;;;3.40;1.95;;;;;;;;;;5074501;28;20049;-60
2023/08/31 07:14:55;;;;;;;4.63;2.67;;;;;;;;;;5073870;28;20053;-60
2023/08/31 07:17:22;;;;;;;3.65;2.45;;;;;;;;;;5073621;28;20413;-60
2023/08/31 07:19:49;;;;;;;3.20;2.00;;;;;;;;;;5073892;28;20391;-60
2023/08/31 07:22:15;;;;;;;3.75;2.13;;;;;;;;;;5073618;28;20070;-60
2023/08/31 07:24:44;;;;;;;3.63;1.90;;;;;;;;;;5073432;28;20052;-60
2023/08/31 07:27:11;;;;;;;5.07;2.28;;;;;;;;;;5073969;28;20064;-60
2023/08/31 07:29:38;;;;;;;2.40;2.00;;;;;;;;;;5073910;28;20059;-60
2023/08/31 07:32:05;;;;;;;3.28;1.85;;;;;;;;;;5073840;28;20056;-60
2023/08/31 07:34:32;;;;;;;2.55;1.73;;;;;;;;;;5073209;28;20502;-59
2023/08/31 07:36:59;;;;;;;2.88;1.73;;;;;;;;;;5073764;28;20052;-59
2023/08/31 07:39:27;;;;;;;3.33;1.55;;;;;;;;;;5073717;28;20068;-59
2023/08/31 07:41:55;;;;;;;3.35;1.10;;;;;;;;;;5073748;28;20131;-60
2023/08/31 07:44:22;;;;;;;2.33;1.50;;;;;;;;;;5073033;28;20392;-60
2023/08/31 07:46:49;;;;;;;1.50;0.93;;;;;;;;;;5073421;28;20053;-60
2023/08/31 07:49:16;;;;;;;2.97;1.77;;;;;;;;;;5073554;28;20057;-60
2023/08/31 07:51:42;;;;;;;2.17;1.50;;;;;;;;;;5073441;28;20079;-60
2023/08/31 07:54:09;;;;;;;2.17;1.20;;;;;;;;;;5073339;28;20071;-60
2023/08/31 07:56:36;;;;;;;1.88;0.95;;;;;;;;;;5073549;28;20394;-60
2023/08/31 07:59:04;;;;;;;1.50;0.93;;;;;;;;;;5073615;28;20482;-61
2023/08/31 08:01:31;;;;;;;2.03;0.90;;;;;;;;;;5073108;28;20064;-61
2023/08/31 08:03:58;;;;;;;2.80;1.55;;;;;;;;;;5073336;28;20059;-60
2023/08/31 08:06:25;;;;;;;1.67;0.98;;;;;;;;;;5073098;28;20482;-60
2023/08/31 08:08:52;;;;;;;1.98;0.60;;;;;;;;;;5073239;28;20052;-60
2023/08/31 08:11:19;;;;;;;2.35;1.02;;;;;;;;;;5073312;28;20494;-60
2023/08/31 08:13:46;;;;;;;2.88;0.90;;;;;;;;;;5073321;28;20068;-60
2023/08/31 08:16:14;;;;;;;1.95;0.80;;;;;;;;;;5073063;28;20063;-60
2023/08/31 08:18:41;;;;;;;1.17;0.80;;;;;;;;;;5073005;28;20082;-60
2023/08/31 08:21:07;;;;;;;2.15;0.90;;;;;;;;;;5072753;28;20045;-60
2023/08/31 08:23:34;;;;;;;1.83;0.75;;;;;;;;;;5072676;28;20048;-60
2023/08/31 08:26:01;;;;;;;2.13;0.88;;;;;;;;;;5072739;28;20401;-60
2023/08/31 08:28:29;;;;;;;2.25;0.93;;;;;;;;;;5072471;28;20052;-61
2023/08/31 08:30:55;;;;;;;1.20;0.70;;;;;;;;;;5072636;28;20405;-60
2023/08/31 08:33:24;;;;;;;1.67;0.90;;;;;;;;;;5072389;28;20064;-60
2023/08/31 08:35:51;;;;;;;1.25;0.75;;;;;;;;;;5071535;28;20485;-60
2023/08/31 08:38:17;;;;;;;2.08;0.90;;;;;;;;;;5072529;28;20053;-60
2023/08/31 08:40:44;;;;;;;2.08;1.25;;;;;;;;;;5072284;28;20056;-61
2023/08/31 08:43:11;;;;;;;2.63;0.85;;;;;;;;;;5072655;28;20052;-60
2023/08/31 08:45:41;;;;;;;1.58;0.70;;;;;;;;;;5072386;28;20075;-60
2023/08/31 08:48:08;;;;;;;2.03;0.80;;;;;;;;;;5072399;28;20059;-61
2023/08/31 08:50:37;;;;;;;1.65;0.70;;;;;;;;;;5072709;28;20056;-60
2023/08/31 08:53:04;;;;;;;1.10;0.70;;;;;;;;;;5072619;28;20060;-59
2023/08/31 08:55:31;;;;;;;0.98;0.50;;;;;;;;;;5072298;28;20060;-58
2023/08/31 08:57:58;;;;;;;1.30;0.80;;;;;;;;;;5072351;28;20406;-58
2023/08/31 09:00:25;;;;;;;1.70;0.80;;;;;;;;;;5072350;28;20167;-59
2023/08/31 09:02:52;;;;;;;2.13;0.80;;;;;;;;;;5072089;28;20048;-59
2023/08/31 09:05:19;;;;;;;1.17;0.40;;;;;;;;;;5071654;28;20402;-59
2023/08/31 09:08:00;;;;;;;1.13;0.75;;;;;;;;;;5072383;28;20068;-60
2023/08/31 09:10:33;;;;;;;1.92;0.77;;;;;;;;;;5069603;28;20049;-59
2023/08/31 09:13:00;;;;;;;2.55;0.80;;;;;;;;;;5072387;28;20513;-59
2023/08/31 09:15:27;;;;;;;0.95;0.50;;;;;;;;;;5072310;28;20463;-59
2023/08/31 09:17:54;;;;;;;1.08;0.60;;;;;;;;;;5072018;28;20048;-60
2023/08/31 09:20:20;;;;;;;0.95;0.50;;;;;;;;;;5071795;28;20056;-59
2023/08/31 09:22:50;;;;;;;2.10;0.70;;;;;;;;;;5072191;28;20063;-60
2023/08/31 09:25:17;;;;;;;3.05;0.68;;;;;;;;;;5072075;28;20048;-60
2023/08/31 09:27:45;;;;;;;2.03;0.73;;;;;;;;;;5072304;28;20052;-59
2023/08/31 09:30:12;;;;;;;2.63;1.00;;;;;;;;;;5072346;28;20490;-60
2023/08/31 09:32:39;;;;;;;1.58;0.80;;;;;;;;;;5072195;28;20068;-59
2023/08/31 09:35:09;;;;;;;1.75;0.75;;;;;;;;;;5071710;28;20056;-59
2023/08/31 09:37:36;;;;;;;2.22;1.08;;;;;;;;;;5072209;28;20075;-60
2023/08/31 09:40:03;;;;;;;1.10;0.63;;;;;;;;;;5071743;28;20052;-59
2023/08/31 09:42:37;;;;;;;1.17;0.70;;;;;;;;;;5071912;28;20060;-59
2023/08/31 09:45:06;;;;;;;2.28;0.90;;;;;;;;;;5071826;28;20049;-59
2023/08/31 09:47:32;;;;;;;2.03;0.60;;;;;;;;;;5075787;28;20049;-59
2023/08/31 09:50:00;;;;;;;1.50;0.73;;;;;;;;;;5075538;28;20082;-59
2023/08/31 09:52:26;;;;;;;1.42;0.65;;;;;;;;;;5076150;28;20052;-59
2023/08/31 09:54:54;;;;;;;1.48;0.82;;;;;;;;;;5075844;28;20406;-58
2023/08/31 09:57:21;;;;;;;2.53;0.93;;;;;;;;;;5075982;28;20056;-58
2023/08/31 09:59:48;;;;;;;0.70;0.40;;;;;;;;;;5075690;28;20056;-59
2023/08/31 10:02:17;;;;;;;1.27;0.55;;;;;;;;;;5075813;28;20496;-59
2023/08/31 10:04:45;;;;;;;1.55;0.80;;;;;;;;;;5075256;28;20052;-58
2023/08/31 10:07:13;;;;;;;1.27;0.60;;;;;;;;;;5075650;28;20397;-59
2023/08/31 10:09:40;;;;;;;;;;;;;;;;;;5076080;28;20052;-59
2023/08/31 10:12:07;;;;;;;0.98;0.45;;;;;;;;;;5075805;28;19920;-59
2023/08/31 10:14:34;;;;;;;3.70;0.60;;;;;;;;;;5075264;28;20056;-59
2023/08/31 10:17:01;;;;;;;1.67;0.50;;;;;;;;;;5075533;28;20493;-59
2023/08/31 10:19:30;;;;;;;1.23;0.75;;;;;;;;;;5074832;28;20056;-57
2023/08/31 10:22:00;;;;;;;2.38;0.90;;;;;;;;;;5074790;28;20052;-59
2023/08/31 10:24:41;;;;;;;1.40;0.70;;;;;;;;;;5074840;28;20049;-58
2023/08/31 10:27:20;;;;;;;2.50;0.60;;;;;;;;;;5074932;28;20052;-58
2023/08/31 10:29:47;;;;;;;1.10;0.50;;;;;;;;;;5075298;28;20048;-59
2023/08/31 10:32:17;;;;;;;2.72;0.40;;;;;;;;;;5075242;28;20053;-59
2023/08/31 10:35:04;;;;;;;0.88;0.50;;;;;;;;;;5074488;28;20123;-58
2023/08/31 10:37:31;;;;;;;2.50;0.77;;;;;;;;;;5074906;28;20170;-58
2023/08/31 10:40:07;;;;;;;1.33;0.65;;;;;;;;;;5075075;28;20379;-58
2023/08/31 10:42:34;;;;;;;0.95;0.57;;;;;;;;;;5075010;28;20059;-58
2023/08/31 10:45:06;;;;;;;2.78;0.73;;;;;;;;;;5074360;28;20056;-58
2023/08/31 10:47:40;;;;;;;2.13;0.68;;;;;;;;;;5074494;28;20063;-59
2023/08/31 10:50:18;;;;;;;2.75;0.75;;;;;;;;;;5074164;28;20053;-59
2023/08/31 10:52:45;;;;;;;1.70;0.60;;;;;;;;;;5074100;28;20390;-59
2023/08/31 10:55:12;;;;;;;1.30;0.50;;;;;;;;;;5074238;28;20061;-59
2023/08/31 10:57:40;;;;;;;1.33;0.70;;;;;;;;;;5073398;28;20048;-59
2023/08/31 11:00:07;;;;;;;2.47;1.00;;;;;;;;;;5074004;28;20399;-59
2023/08/31 11:02:35;;;;;;;2.47;0.88;;;;;;;;;;5074669;28;20060;-59
2023/08/31 11:05:04;;;;;;;2.08;0.90;;;;;;;;;;5074362;28;20048;-59
2023/08/31 11:07:34;;;;;;;1.00;0.52;;;;;;;;;;5074155;28;20056;-59
2023/08/31 11:10:08;;;;;;;3.00;0.75;;;;;;;;;;5073711;28;20048;-59
2023/08/31 11:12:35;;;;;;;5.47;0.60;;;;;;;;;;5074302;28;20048;-59
2023/08/31 11:15:03;;;;;;;1.90;0.88;;;;;;;;;;5073703;28;20052;-59
2023/08/31 11:17:30;;;;;;;1.65;0.60;;;;;;;;;;5074434;28;20059;-59
2023/08/31 11:19:57;;;;;;;1.27;0.57;;;;;;;;;;5073742;28;20052;-59
2023/08/31 11:22:24;;;;;;;1.60;0.75;;;;;;;;;;5073905;28;20072;-58
2023/08/31 11:24:52;;;;;;;0.98;0.50;;;;;;;;;;5073929;28;20044;-59
2023/08/31 11:27:20;;;;;;;2.10;0.75;;;;;;;;;;5073991;28;20086;-59
2023/08/31 11:29:47;;;;;;;1.10;0.50;;;;;;;;;;5073931;28;20052;-59
2023/08/31 11:32:13;;;;;;;1.20;0.70;;;;;;;;;;5074031;28;20057;-59
2023/08/31 11:34:44;;;;;;;1.60;0.93;;;;;;;;;;5073332;28;20063;-59
2023/08/31 11:37:11;;;;;;;1.45;0.70;;;;;;;;;;5073376;28;20059;-59
2023/08/31 11:39:38;;;;;;;0.77;0.50;;;;;;;;;;5073659;28;20053;-59
2023/08/31 11:42:06;;;;;;;1.23;0.60;;;;;;;;;;5073835;28;20056;-59
2023/08/31 11:44:33;;;;;;;1.23;0.80;;;;;;;;;;5073116;28;20063;-59
2023/08/31 11:47:00;;;;;;;1.60;0.80;;;;;;;;;;5073561;28;20055;-59
2023/08/31 11:49:27;;;;;;;3.20;0.70;;;;;;;;;;5073449;28;20439;-59
2023/08/31 11:51:55;;;;;;;1.55;1.08;;;;;;;;;;5073240;28;20057;-59
2023/08/31 11:54:21;;;;;;;1.15;0.50;;;;;;;;;;5073677;28;20485;-59
2023/08/31 11:56:48;;;;;;;2.30;0.95;;;;;;;;;;5073552;28;20363;-59
2023/08/31 11:59:17;;;;;;;1.42;0.73;;;;;;;;;;5073536;28;20386;-59
2023/08/31 12:01:44;;;;;;;1.20;0.70;;;;;;;;;;5073500;28;20071;-58
2023/08/31 12:04:12;;;;;;;2.05;0.70;;;;;;;;;;5073207;28;20062;-59
2023/08/31 12:06:39;;;;;;;1.27;0.50;;;;;;;;;;5072851;28;20048;-59
2023/08/31 12:09:06;;;;;;;1.10;0.65;;;;;;;;;;5072734;28;20052;-59
2023/08/31 12:11:33;;;;;;;0.93;0.57;;;;;;;;;;5073215;28;20397;-59
2023/08/31 12:14:00;;;;;;;1.48;0.63;;;;;;;;;;5072812;28;20056;-59
2023/08/31 12:16:35;;;;;;;1.95;1.25;;;;;;;;;;5072956;28;20508;-59
2023/08/31 12:19:03;;;;;;;2.42;0.90;;;;;;;;;;5072944;28;20417;-58
2023/08/31 12:21:30;;;;;;;;;;;;;;;;;;5073265;28;20072;-59
2023/08/31 12:23:57;;;;;;;2.22;0.90;;;;;;;;;;5072727;28;20373;-59
2023/08/31 12:26:24;;;;;;;2.50;0.88;;;;;;;;;;5072792;28;20051;-59
2023/08/31 12:28:51;;;;;;;1.25;0.75;;;;;;;;;;5072893;28;20473;-58
2023/08/31 12:31:18;;;;;;;1.42;0.80;;;;;;;;;;5072650;28;20505;-58
2023/08/31 12:33:46;;;;;;;1.42;0.80;;;;;;;;;;5072697;28;20056;-59
2023/08/31 12:36:13;;;;;;;1.50;0.70;;;;;;;;;;5072446;28;20060;-58
2023/08/31 12:38:42;;;;;;;1.10;0.70;;;;;;;;;;5072712;28;20052;-58
2023/08/31 12:41:08;;;;;;;1.50;1.08;;;;;;;;;;5072453;28;20397;-59
2023/08/31 12:43:35;;;;;;;2.58;1.33;;;;;;;;;;5072159;28;20056;-59
2023/08/31 12:46:05;;;;;;;1.55;0.80;;;;;;;;;;5072531;28;20056;-59
2023/08/31 12:48:32;;;;;;;1.30;0.60;;;;;;;;;;5072282;28;20055;-59
2023/08/31 12:51:00;;;;;;;1.05;0.55;;;;;;;;;;5072324;28;20064;-58
2023/08/31 12:53:27;;;;;;;1.98;0.65;;;;;;;;;;5072453;28;20052;-58
2023/08/31 12:55:54;;;;;;;1.83;1.00;;;;;;;;;;5072522;28;20496;-58
2023/08/31 12:58:21;;;;;;;2.28;1.30;;;;;;;;;;5072094;28;20064;-58
2023/08/31 13:00:49;;;;;;;1.40;0.60;;;;;;;;;;5072361;28;20052;-59
2023/08/31 13:03:15;;;;;;;1.33;0.80;;;;;;;;;;5072035;28;20497;-59
2023/08/31 13:05:42;;;;;;;1.73;0.98;;;;;;;;;;5071796;28;20048;-58
2023/08/31 13:08:10;;;;;;;1.33;0.80;;;;;;;;;;5072308;28;20618;-59
2023/08/31 13:10:37;;;;;;;1.00;0.90;;;;;;;;;;5072116;28;20052;-59
2023/08/31 13:13:04;;;;;;;0.70;0.47;;;;;;;;;;5071797;28;20063;-59
2023/08/31 13:15:32;;;;;;;1.95;0.60;;;;;;;;;;5071758;28;20048;-58
2023/08/31 13:17:59;;;;;;;1.92;0.75;;;;;;;;;;5072085;28;20060;-59
2023/08/31 13:20:26;;;;;;;0.82;0.50;;;;;;;;;;5072000;28;20049;-59
2023/08/31 13:22:53;;;;;;;1.00;0.50;;;;;;;;;;5075752;28;20048;-58
2023/08/31 13:25:21;;;;;;;1.40;0.52;;;;;;;;;;5075942;28;20470;-59
2023/08/31 13:27:47;;;;;;;1.05;0.70;;;;;;;;;;5075899;28;20053;-59
2023/08/31 13:30:14;;;;;;;1.02;0.65;;;;;;;;;;5075696;28;20066;-59
2023/08/31 13:32:41;;;;;;;1.30;0.68;;;;;;;;;;5075852;28;20060;-59
2023/08/31 13:35:08;;;;;;;1.42;0.70;;;;;;;;;;5075523;28;20498;-59
2023/08/31 13:37:35;;;;;;;1.15;0.63;;;;;;;;;;5075938;28;20044;-59
2023/08/31 13:40:04;;;;;;;0.77;0.50;;;;;;;;;;5075559;28;20067;-59
2023/08/31 13:42:34;;;;;;;1.45;0.80;;;;;;;;;;5075952;28;20056;-58
2023/08/31 13:45:01;;;;;;;2.08;0.52;;;;;;;;;;5075530;28;20520;-59
2023/08/31 13:47:28;;;;;;;1.42;0.55;;;;;;;;;;5075782;28;20045;-60
2023/08/31 13:49:54;;;;;;;3.13;1.05;;;;;;;;;;5075333;28;20512;-59
2023/08/31 13:52:21;;;;;;;2.08;0.75;;;;;;;;;;5075586;28;20057;-60
2023/08/31 13:54:48;;;;;;;1.08;0.65;;;;;;;;;;5075389;28;20416;-60
2023/08/31 13:57:17;;;;;;;1.30;0.90;;;;;;;;;;5075922;28;20059;-60
2023/08/31 13:59:45;;;;;;;1.55;0.93;;;;;;;;;;5075754;28;20048;-60
2023/08/31 14:02:12;;;;;;;1.13;0.80;;;;;;;;;;5075573;28;20052;-60
2023/08/31 14:04:39;;;;;;;0.98;0.60;;;;;;;;;;5075237;28;20059;-60
2023/08/31 14:07:07;;;;;;;3.42;0.50;;;;;;;;;;5075322;28;20059;-60
2023/08/31 14:09:34;;;;;;;1.67;0.68;;;;;;;;;;5075105;28;20056;-60
2023/08/31 14:12:02;;;;;;;2.58;1.10;;;;;;;;;;5075272;28;20056;-60
2023/08/31 14:14:29;;;;;;;1.23;0.70;;;;;;;;;;5075431;28;20048;-60
2023/08/31 14:16:57;;;;;;;1.20;0.57;;;;;;;;;;5075125;28;20055;-60
2023/08/31 14:19:24;;;;;;;4.75;1.00;;;;;;;;;;5074861;28;20056;-60
2023/08/31 14:21:52;;;;;;;1.30;0.80;;;;;;;;;;5075221;28;20063;-60
2023/08/31 14:24:19;;;;;;;3.42;1.20;;;;;;;;;;5075235;28;20060;-60
2023/08/31 14:26:46;;;;;;;1.27;0.57;;;;;;;;;;5074860;28;20075;-60
2023/08/31 14:29:13;;;;;;;1.45;0.88;;;;;;;;;;5074590;28;20060;-60
2023/08/31 14:31:39;;;;;;;4.93;0.90;;;;;;;;;;5074696;28;20393;-60
2023/08/31 14:34:08;;;;;;;12.00;1.10;;;;;;;;;;5073922;28;20494;-59
2023/08/31 14:36:34;;;;;;;1.95;1.38;;;;;;;;;;5074917;28;20044;-60
2023/08/31 14:39:02;;;;;;;2.00;0.95;;;;;;;;;;5074868;28;20079;-60
2023/08/31 14:41:30;;;;;;;3.35;1.10;;;;;;;;;;5074792;28;20049;-60
2023/08/31 14:43:57;;;;;;;3.45;1.85;;;;;;;;;;5074827;28;20059;-59
2023/08/31 14:46:24;;;;;;;2.03;1.05;;;;;;;;;;5074823;28;20048;-60